createdAt,value
2022-08-12T00:00:35.474Z,77412.06
2022-08-12T00:03:21.380Z,77418.34
2022-08-12T00:06:08.374Z,77437.16
2022-08-12T00:08:56.495Z,77460.16
2022-08-12T00:11:42.471Z,77474.78
2022-08-12T00:14:28.403Z,77474.78
2022-08-12T00:17:13.723Z,77478.97
2022-08-12T00:19:59.024Z,77483.16
2022-08-12T00:22:44.399Z,77468.50
2022-08-12T00:26:05.818Z,77470.59
2022-08-12T00:28:35.648Z,77462.25
2022-08-12T00:31:20.787Z,77466.41
2022-08-12T00:34:05.572Z,77462.25
2022-08-12T00:36:50.775Z,77462.25
2022-08-12T00:39:35.995Z,77455.97
2022-08-12T00:42:11.528Z,77443.44
2022-08-12T00:44:43.739Z,77458.06
2022-08-12T00:47:25.143Z,77455.97
2022-08-12T00:49:53.834Z,77460.16
2022-08-12T00:52:20.858Z,77458.06
2022-08-12T00:54:49.860Z,77460.16
2022-08-12T00:57:29.007Z,77483.16
2022-08-12T00:59:57.050Z,77499.88
2022-08-12T01:02:29.418Z,77504.03
2022-08-12T01:05:23.676Z,77522.84
2022-08-12T01:08:09.514Z,77545.84
2022-08-12T01:10:57.806Z,77547.94
2022-08-12T01:13:25.731Z,77566.75
2022-08-12T01:15:55.349Z,77577.19
2022-08-12T01:18:28.031Z,77600.19
2022-08-12T01:21:07.399Z,77612.72
2022-08-12T01:23:45.218Z,77623.19
2022-08-12T01:26:16.765Z,77633.63
2022-08-12T01:28:44.687Z,77646.19
2022-08-12T01:31:16.209Z,77652.44
2022-08-12T01:33:57.304Z,77660.81
2022-08-12T01:36:26.082Z,77656.63
2022-08-12T01:38:56.385Z,77667.09
2022-08-12T01:41:26.339Z,77692.16
2022-08-12T01:43:54.596Z,77698.44
2022-08-12T01:46:25.855Z,77700.53
2022-08-12T01:49:21.738Z,77698.44
2022-08-12T01:52:16.459Z,77702.63
2022-08-12T01:54:44.897Z,77700.53
2022-08-12T01:57:59.821Z,77696.34
2022-08-12T02:00:43.241Z,77706.78
2022-08-12T02:03:31.431Z,77717.25
2022-08-12T02:06:29.219Z,77719.34
2022-08-12T02:09:17.517Z,77731.88
2022-08-12T02:11:58.853Z,77729.78
2022-08-12T02:14:40.337Z,77742.34
2022-08-12T02:17:28.333Z,77750.69
2022-08-12T02:20:51.784Z,77761.16
2022-08-12T02:23:21.822Z,77769.50
2022-08-12T02:25:50.393Z,77771.59
2022-08-12T02:28:16.923Z,77773.69
2022-08-12T02:30:43.801Z,77779.97
2022-08-12T02:33:11.296Z,77775.78
2022-08-12T02:35:39.527Z,77798.78
2022-08-12T02:38:08.975Z,77805.03
2022-08-12T02:40:38.649Z,77817.59
2022-08-12T02:43:17.492Z,77825.94
2022-08-12T02:45:57.238Z,77815.50
2022-08-12T02:48:30.944Z,77813.41
2022-08-12T02:51:04.222Z,77828.03
2022-08-12T02:53:32.323Z,77823.84
2022-08-12T02:56:02.752Z,77825.94
2022-08-12T02:58:35.552Z,77830.13
2022-08-12T03:01:04.275Z,77832.22
2022-08-12T03:03:32.975Z,77853.13
2022-08-12T03:06:09.588Z,77857.31
2022-08-12T03:08:40.815Z,77846.84
2022-08-12T03:11:14.626Z,77844.75
2022-08-12T03:13:42.917Z,77838.50
2022-08-12T03:16:09.688Z,77836.41
2022-08-12T03:18:36.806Z,77838.50
2022-08-12T03:21:04.205Z,77846.84
2022-08-12T03:23:31.439Z,77848.94
2022-08-12T03:26:02.505Z,77855.22
2022-08-12T03:28:49.886Z,77857.31
2022-08-12T03:31:34.457Z,77859.38
2022-08-12T03:34:04.112Z,77857.31
2022-08-12T03:36:35.083Z,77848.94
2022-08-12T03:39:35.485Z,77863.56
2022-08-12T03:42:22.197Z,77865.66
2022-08-12T03:45:16.831Z,77867.75
2022-08-12T03:48:18.962Z,77869.84
2022-08-12T03:51:06.811Z,77874.03
2022-08-12T03:53:52.471Z,77874.03
2022-08-12T03:56:37.813Z,77867.75
2022-08-12T03:59:24.785Z,77869.84
2022-08-12T04:01:58.059Z,77867.75
2022-08-12T04:04:25.330Z,77869.84
2022-08-12T04:06:52.222Z,77876.13
2022-08-12T04:09:21.161Z,77880.28
2022-08-12T04:12:06.637Z,77880.28
2022-08-12T04:14:33.983Z,77882.38
2022-08-12T04:17:01.272Z,77884.47
2022-08-12T04:19:27.911Z,77892.84
2022-08-12T04:22:01.875Z,77903.28
2022-08-12T04:24:31.570Z,77899.09
2022-08-12T04:26:58.058Z,77894.94
2022-08-12T04:30:31.435Z,77882.38
2022-08-12T04:32:12.218Z,77880.28
2022-08-12T04:34:39.295Z,77886.56
2022-08-12T04:37:05.891Z,77888.66
2022-08-12T04:39:32.803Z,77874.03
2022-08-12T04:41:59.841Z,77878.19
2022-08-12T04:44:28.090Z,77882.38
2022-08-12T04:46:55.968Z,77878.19
2022-08-12T04:49:24.241Z,77876.13
2022-08-12T04:51:57.677Z,77874.03
2022-08-12T04:54:27.278Z,77882.38
2022-08-12T04:57:03.591Z,77878.19
2022-08-12T04:59:48.215Z,77878.19
2022-08-12T05:02:21.076Z,77878.19
2022-08-12T05:04:51.859Z,77880.28
2022-08-12T05:07:19.696Z,77882.38
2022-08-12T05:10:00.692Z,77869.84
2022-08-12T05:12:38.411Z,77869.84
2022-08-12T05:15:19.687Z,77880.28
2022-08-12T05:17:52.882Z,77874.03
2022-08-12T05:20:20.860Z,77874.03
2022-08-12T05:22:47.478Z,77871.94
2022-08-12T05:25:15.857Z,77871.94
2022-08-12T05:27:55.598Z,77871.94
2022-08-12T05:30:30.853Z,77878.19
2022-08-12T05:32:59.957Z,77874.03
2022-08-12T05:35:27.283Z,77871.94
2022-08-12T05:38:13.754Z,77867.75
2022-08-12T05:40:41.182Z,77869.84
2022-08-12T05:43:08.149Z,77859.38
2022-08-12T05:45:34.630Z,77861.47
2022-08-12T05:48:02.713Z,77857.31
2022-08-12T05:50:29.352Z,77855.22
2022-08-12T05:52:55.854Z,77863.56
2022-08-12T05:55:25.858Z,77861.47
2022-08-12T05:57:55.758Z,77853.13
2022-08-12T06:00:25.778Z,77855.22
2022-08-12T06:03:02.447Z,77853.13
2022-08-12T06:05:54.522Z,77855.22
2022-08-12T06:08:22.419Z,77853.13
2022-08-12T06:10:51.476Z,77844.75
2022-08-12T06:13:28.920Z,77842.66
2022-08-12T06:16:07.240Z,77838.50
2022-08-12T06:18:34.005Z,77834.31
2022-08-12T06:21:01.861Z,77834.31
2022-08-12T06:23:28.959Z,77830.13
2022-08-12T06:25:56.196Z,77821.75
2022-08-12T06:28:23.050Z,77821.75
2022-08-12T06:31:14.883Z,77807.13
2022-08-12T06:33:55.389Z,77809.22
2022-08-12T06:36:29.286Z,77805.03
2022-08-12T06:38:56.895Z,77796.69
2022-08-12T06:41:41.808Z,77790.41
2022-08-12T06:44:28.348Z,77786.22
2022-08-12T06:46:54.886Z,77782.06
2022-08-12T06:49:23.613Z,77784.13
2022-08-12T06:51:53.488Z,77775.78
2022-08-12T06:54:30.641Z,77767.41
2022-08-12T06:57:14.445Z,77767.41
2022-08-12T06:59:44.900Z,77756.97
2022-08-12T07:02:11.378Z,77740.25
2022-08-12T07:04:39.249Z,77738.16
2022-08-12T07:07:09.726Z,77729.78
2022-08-12T07:10:01.301Z,77727.69
2022-08-12T07:12:36.537Z,77713.06
2022-08-12T07:15:03.742Z,77704.72
2022-08-12T07:17:35.875Z,77694.25
2022-08-12T07:20:10.063Z,77671.25
2022-08-12T07:22:39.703Z,77667.09
2022-08-12T07:25:24.804Z,77652.44
2022-08-12T07:27:55.097Z,77642.00
2022-08-12T07:30:23.163Z,77637.81
2022-08-12T07:32:51.394Z,77616.91
2022-08-12T07:35:18.508Z,77608.56
2022-08-12T07:37:46.924Z,77589.75
2022-08-12T07:40:13.840Z,77575.13
2022-08-12T07:42:43.613Z,77564.66
2022-08-12T07:45:12.254Z,77541.66
2022-08-12T07:47:41.319Z,77527.03
2022-08-12T07:50:09.368Z,77520.75
2022-08-12T07:52:44.231Z,77510.31
2022-08-12T07:55:12.099Z,77487.31
2022-08-12T07:58:11.235Z,77472.69
2022-08-12T08:00:40.290Z,77460.16
2022-08-12T08:03:08.647Z,77451.78
2022-08-12T08:05:45.882Z,77437.16
2022-08-12T08:08:16.981Z,77407.91
2022-08-12T08:10:43.833Z,77397.44
2022-08-12T08:13:12.552Z,77389.09
2022-08-12T08:18:27.815Z,77345.19
2022-08-12T08:20:56.362Z,77280.41
2022-08-12T08:23:34.836Z,77272.03
2022-08-12T08:26:01.817Z,77276.22
2022-08-12T08:28:28.288Z,77242.78
2022-08-12T08:30:54.781Z,77236.50
2022-08-12T08:33:23.415Z,77223.97
2022-08-12T08:36:16.484Z,77211.44
2022-08-12T08:38:56.056Z,77173.81
2022-08-12T08:42:15.824Z,77146.63
2022-08-12T08:44:30.441Z,77069.31
2022-08-12T08:46:56.990Z,77088.13
2022-08-12T08:49:23.533Z,77102.75
2022-08-12T08:51:50.124Z,77092.31
2022-08-12T08:54:16.720Z,77017.06
2022-08-12T08:56:49.802Z,77010.78
2022-08-12T08:59:19.449Z,77025.44
2022-08-12T09:01:46.869Z,77014.97
2022-08-12T09:05:08.741Z,77010.78
2022-08-12T09:07:17.814Z,76991.97
2022-08-12T09:10:02.438Z,76929.28
2022-08-12T09:12:54.562Z,76916.75
2022-08-12T09:18:12.052Z,76925.09
2022-08-12T09:20:40.265Z,76916.75
2022-08-12T09:23:59.872Z,76883.31
2022-08-12T09:25:57.679Z,76854.06
2022-08-12T09:32:03.283Z,76801.81
2022-08-12T09:34:29.259Z,76747.47
2022-08-12T09:36:58.058Z,76751.66
2022-08-12T09:40:05.491Z,76724.47
2022-08-12T09:42:43.386Z,76701.50
2022-08-12T09:45:23.222Z,76724.47
2022-08-12T09:47:59.737Z,76688.97
2022-08-12T09:50:27.286Z,76672.25
2022-08-12T09:53:14.786Z,76649.25
2022-08-12T09:56:07.378Z,76657.63
2022-08-12T09:58:57.433Z,76657.63
2022-08-12T10:01:23.141Z,76640.91
2022-08-12T10:03:55.520Z,76655.53
2022-08-12T10:06:36.018Z,76651.34
2022-08-12T10:09:08.231Z,76640.91
2022-08-12T10:12:11.512Z,76645.06
2022-08-12T10:14:39.954Z,76655.53
2022-08-12T10:17:20.393Z,76632.53
2022-08-12T10:19:52.006Z,76624.19
2022-08-12T10:22:37.060Z,76609.56
2022-08-12T10:26:35.749Z,76605.38
2022-08-12T10:28:30.759Z,76578.19
2022-08-12T10:30:59.200Z,76563.56
2022-08-12T10:33:31.687Z,76555.22
2022-08-12T10:36:00.031Z,76530.13
2022-08-12T10:38:34.721Z,76507.16
2022-08-12T10:41:57.111Z,76494.63
2022-08-12T10:44:16.771Z,76457.00
2022-08-12T10:46:46.022Z,76454.91
2022-08-12T10:50:02.793Z,76436.09
2022-08-12T10:52:32.833Z,76440.28
2022-08-12T10:54:51.385Z,76442.38
2022-08-12T10:58:12.812Z,76429.84
2022-08-12T11:00:33.973Z,76423.56
2022-08-12T11:04:20.434Z,76431.94
2022-08-12T11:07:09.590Z,76423.56
2022-08-12T11:08:37.894Z,76392.22
2022-08-12T11:11:13.353Z,76379.69
2022-08-12T11:13:46.921Z,76392.22
2022-08-12T11:16:21.685Z,76377.59
2022-08-12T11:18:54.975Z,76373.41
2022-08-12T11:21:22.652Z,76383.88
2022-08-12T11:24:30.124Z,76375.50
2022-08-12T11:29:24.394Z,76360.88
2022-08-12T11:32:01.796Z,76358.78
2022-08-12T11:34:51.729Z,76360.88
2022-08-12T11:37:26.340Z,76337.91
2022-08-12T11:42:35.081Z,76329.53
2022-08-12T11:45:03.922Z,76321.19
2022-08-12T11:47:31.621Z,76308.63
2022-08-12T11:49:58.176Z,76314.91
2022-08-12T11:52:38.595Z,76317.00
2022-08-12T11:55:14.799Z,76312.81
2022-08-12T11:58:19.841Z,76294.00
2022-08-12T12:03:26.068Z,76264.75
2022-08-12T12:06:10.868Z,76256.41
2022-08-12T12:08:47.016Z,76254.31
2022-08-12T12:11:17.950Z,76256.41
2022-08-12T12:14:08.345Z,76256.41
2022-08-12T12:16:31.113Z,76239.69
2022-08-12T12:19:00.078Z,76216.69
2022-08-12T12:21:47.301Z,76195.81
2022-08-12T12:24:13.228Z,76202.06
2022-08-12T12:26:39.794Z,76210.44
2022-08-12T12:30:14.066Z,76218.78
2022-08-12T12:32:10.356Z,76208.34
2022-08-12T12:34:37.829Z,76208.34
2022-08-12T12:37:05.173Z,76210.44
2022-08-12T12:39:54.727Z,76193.72
2022-08-12T12:42:45.392Z,76189.53
2022-08-12T12:45:19.155Z,76181.19
2022-08-12T12:48:07.951Z,76181.19
2022-08-12T12:50:45.022Z,76164.47
2022-08-12T12:54:08.746Z,76166.56
2022-08-12T12:55:59.074Z,76164.47
2022-08-12T12:58:25.546Z,76168.66
2022-08-12T13:00:53.912Z,76160.28
2022-08-12T13:03:21.906Z,76135.22
2022-08-12T13:05:53.741Z,76135.22
2022-08-12T13:08:28.543Z,76139.38
2022-08-12T13:11:04.634Z,76147.75
2022-08-12T13:14:07.525Z,76137.31
2022-08-12T13:16:23.465Z,76120.59
2022-08-12T13:18:52.442Z,76126.84
2022-08-12T13:21:32.794Z,76120.59
2022-08-12T13:24:09.841Z,76139.38
2022-08-12T13:26:37.878Z,76143.56
2022-08-12T13:29:04.610Z,76154.03
2022-08-12T13:31:31.556Z,76145.66
2022-08-12T13:34:33.878Z,76149.84
2022-08-12T13:36:50.790Z,76147.75
2022-08-12T13:39:21.634Z,76145.66
2022-08-12T13:41:49.600Z,76139.38
2022-08-12T13:44:16.423Z,76118.50
2022-08-12T13:46:43.526Z,76118.50
2022-08-12T13:49:53.662Z,76122.69
2022-08-12T13:52:11.375Z,76128.94
2022-08-12T13:54:37.879Z,76114.31
2022-08-12T13:57:04.406Z,76120.59
2022-08-12T13:59:48.864Z,76118.50
2022-08-12T14:02:22.560Z,76118.50
2022-08-12T14:04:56.141Z,76124.75
2022-08-12T14:07:23.911Z,76108.06
2022-08-12T14:10:11.986Z,76116.41
2022-08-12T14:12:53.963Z,76122.69
2022-08-12T14:15:21.502Z,76128.94
2022-08-12T14:18:23.106Z,76110.13
2022-08-12T14:20:50.906Z,76101.78
2022-08-12T14:24:04.295Z,76091.34
2022-08-12T14:26:11.998Z,76080.88
2022-08-12T14:28:39.780Z,76082.97
2022-08-12T14:31:18.719Z,76091.34
2022-08-12T14:33:52.165Z,76085.06
2022-08-12T14:36:20.735Z,76091.34
2022-08-12T14:38:49.498Z,76080.88
2022-08-12T14:41:21.798Z,76087.16
2022-08-12T14:44:04.600Z,76070.44
2022-08-12T14:46:37.663Z,76074.63
2022-08-12T14:49:27.620Z,76089.25
2022-08-12T14:52:55.558Z,76089.25
2022-08-12T14:57:00.090Z,76105.97
2022-08-12T14:57:35.631Z,76085.06
2022-08-12T15:00:30.798Z,76085.06
2022-08-12T15:02:57.293Z,76089.25
2022-08-12T15:06:05.983Z,76093.44
2022-08-12T15:08:12.694Z,76076.72
2022-08-12T15:10:45.850Z,76072.53
2022-08-12T15:13:23.169Z,76072.53
2022-08-12T15:15:49.854Z,76074.63
2022-08-12T15:18:21.701Z,76080.88
2022-08-12T15:20:48.967Z,76097.59
2022-08-12T15:23:21.580Z,76091.34
2022-08-12T15:26:02.564Z,76108.06
2022-08-12T15:28:32.978Z,76105.97
2022-08-12T15:31:00.738Z,76095.50
2022-08-12T15:33:44.766Z,76082.97
2022-08-12T15:36:13.618Z,76085.06
2022-08-12T15:38:40.088Z,76076.72
2022-08-12T15:41:06.794Z,76074.63
2022-08-12T15:44:14.119Z,76078.78
2022-08-12T15:46:25.615Z,76097.59
2022-08-12T15:48:52.320Z,76091.34
2022-08-12T15:51:58.289Z,76099.69
2022-08-12T15:54:33.933Z,76118.50
2022-08-12T15:57:05.392Z,76128.94
2022-08-12T15:59:51.716Z,76118.50
2022-08-12T16:02:19.361Z,76141.47
2022-08-12T16:04:50.228Z,76151.94
2022-08-12T16:07:25.889Z,76158.19
2022-08-12T16:10:06.971Z,76164.47
2022-08-12T16:12:43.523Z,76151.94
2022-08-12T16:15:25.040Z,76168.66
2022-08-12T16:18:25.962Z,76179.09
2022-08-12T16:20:46.783Z,76202.06
2022-08-12T16:23:36.217Z,76191.63
2022-08-12T16:26:06.221Z,76195.81
2022-08-12T16:28:41.499Z,76197.91
2022-08-12T16:31:14.438Z,76191.63
2022-08-12T16:33:58.795Z,76191.63
2022-08-12T16:36:28.860Z,76181.19
2022-08-12T16:38:55.219Z,76160.28
2022-08-12T16:41:22.610Z,76168.66
2022-08-12T16:43:49.367Z,76166.56
2022-08-12T16:46:31.719Z,76185.34
2022-08-12T16:49:09.240Z,76193.72
2022-08-12T16:51:46.972Z,76197.91
2022-08-12T16:54:16.628Z,76204.16
2022-08-12T16:56:55.457Z,76212.53
2022-08-12T16:59:52.806Z,76222.97
2022-08-12T17:02:31.915Z,76235.50
2022-08-12T17:05:03.396Z,76250.13
2022-08-12T17:07:37.128Z,76239.69
2022-08-12T17:10:09.298Z,76258.50
2022-08-12T17:12:37.461Z,76266.84
2022-08-12T17:15:50.204Z,76285.66
2022-08-12T17:18:38.830Z,76287.75
2022-08-12T17:20:46.697Z,76298.19
2022-08-12T17:23:18.122Z,76294.00
2022-08-12T17:25:52.166Z,76298.19
2022-08-12T17:28:21.240Z,76312.81
2022-08-12T17:30:57.389Z,76308.63
2022-08-12T17:33:26.387Z,76325.34
2022-08-12T17:35:58.397Z,76339.97
2022-08-12T17:38:24.975Z,76352.53
2022-08-12T17:40:51.851Z,76369.25
2022-08-12T17:43:54.631Z,76375.50
2022-08-12T17:46:12.471Z,76375.50
2022-08-12T17:48:54.798Z,76390.13
2022-08-12T17:51:24.082Z,76415.22
2022-08-12T17:54:05.955Z,76431.94
2022-08-12T17:56:39.343Z,76438.19
2022-08-12T17:59:12.449Z,76448.66
2022-08-12T18:01:43.333Z,76461.19
2022-08-12T18:04:22.429Z,76465.38
2022-08-12T18:06:51.721Z,76480.00
2022-08-12T18:09:18.688Z,76494.63
2022-08-12T18:12:07.902Z,76509.25
2022-08-12T18:14:37.055Z,76519.69
2022-08-12T18:17:08.240Z,76542.69
2022-08-12T18:20:03.967Z,76553.13
2022-08-12T18:22:30.608Z,76565.66
2022-08-12T18:25:05.138Z,76584.47
2022-08-12T18:27:44.196Z,76590.75
2022-08-12T18:30:16.240Z,76611.63
2022-08-12T18:32:58.924Z,76613.72
2022-08-12T18:35:46.869Z,76630.44
2022-08-12T18:38:19.117Z,76651.34
2022-08-12T18:41:04.767Z,76665.97
2022-08-12T18:43:37.132Z,76674.34
2022-08-12T18:46:53.293Z,76695.22
2022-08-12T18:49:30.746Z,76707.75
2022-08-12T18:52:04.375Z,76718.22
2022-08-12T18:54:41.569Z,76730.75
2022-08-12T18:57:19.819Z,76737.03
2022-08-12T19:00:06.832Z,76749.56
2022-08-12T19:02:39.922Z,76760.00
2022-08-12T19:05:10.019Z,76766.28
2022-08-12T19:07:50.032Z,76783.00
2022-08-12T19:10:28.744Z,76791.34
2022-08-12T19:13:24.249Z,76797.63
2022-08-12T19:15:58.128Z,76812.25
2022-08-12T19:18:29.998Z,76824.78
2022-08-12T19:21:00.408Z,76831.06
2022-08-12T19:23:35.346Z,76841.50
2022-08-12T19:26:03.556Z,76851.97
2022-08-12T19:28:34.416Z,76866.59
2022-08-12T19:31:56.633Z,76872.88
2022-08-12T19:37:16.468Z,76891.66
2022-08-12T19:40:09.769Z,76893.75
2022-08-12T19:42:32.933Z,76902.13
2022-08-12T19:45:04.565Z,76910.47
2022-08-12T19:47:38.949Z,76910.47
2022-08-12T19:50:06.835Z,76920.94
2022-08-12T19:52:39.011Z,76931.38
2022-08-12T19:55:11.504Z,76935.56
2022-08-12T19:58:01.893Z,76937.66
2022-08-12T20:00:29.383Z,76948.09
2022-08-12T20:03:00.696Z,76958.53
2022-08-12T20:06:05.388Z,76962.72
2022-08-12T20:08:27.862Z,76971.09
2022-08-12T20:12:10.209Z,76973.19
2022-08-12T20:14:01.317Z,76987.81
2022-08-12T20:16:52.959Z,76989.91
2022-08-12T20:20:01.725Z,76996.16
2022-08-12T20:22:24.439Z,77004.53
2022-08-12T20:24:57.094Z,77010.78
2022-08-12T20:27:29.855Z,77006.63
2022-08-12T20:30:13.536Z,77006.63
2022-08-12T20:32:51.314Z,77014.97
2022-08-12T20:35:24.393Z,77014.97
2022-08-12T20:38:06.517Z,77019.16
2022-08-12T20:40:33.404Z,77029.59
2022-08-12T20:43:00.013Z,77031.69
2022-08-12T20:45:26.891Z,77031.69
2022-08-12T20:48:12.547Z,77037.97
2022-08-12T20:50:42.223Z,77037.97
2022-08-12T20:53:33.317Z,77037.97
2022-08-12T20:56:19.597Z,77037.97
2022-08-12T20:58:46.393Z,77040.06
2022-08-12T21:01:15.458Z,77046.31
2022-08-12T21:04:05.435Z,77037.97
2022-08-12T21:07:08.678Z,77040.06
2022-08-12T21:09:42.216Z,77029.59
2022-08-12T21:12:28.596Z,77037.97
2022-08-12T21:15:23.944Z,77025.44
2022-08-12T21:18:09.623Z,77033.78
2022-08-12T21:20:36.986Z,77037.97
2022-08-12T21:23:05.789Z,77035.88
2022-08-12T21:25:44.368Z,77040.06
2022-08-12T21:28:12.965Z,77044.22
2022-08-12T21:30:54.739Z,77060.94
2022-08-12T21:33:30.770Z,77069.31
2022-08-12T21:35:58.018Z,77067.22
2022-08-12T21:38:34.840Z,77073.50
2022-08-12T21:41:07.074Z,77081.84
2022-08-12T21:43:45.302Z,77092.31
2022-08-12T21:46:34.869Z,77090.22
2022-08-12T21:49:04.985Z,77090.22
2022-08-12T21:51:49.454Z,77100.66
2022-08-12T21:54:22.019Z,77115.28
2022-08-12T21:56:49.786Z,77134.09
2022-08-12T21:59:17.668Z,77132.00
2022-08-12T22:01:48.646Z,77146.63
2022-08-12T22:04:34.718Z,77157.09
2022-08-12T22:07:01.680Z,77159.19
2022-08-12T22:09:29.479Z,77167.53
2022-08-12T22:12:27.546Z,77180.09
2022-08-12T22:14:54.425Z,77182.16
2022-08-12T22:17:20.996Z,77180.09
2022-08-12T22:19:50.565Z,77196.81
2022-08-12T22:22:17.040Z,77207.25
2022-08-12T22:24:45.554Z,77205.16
2022-08-12T22:27:31.337Z,77211.44
2022-08-12T22:30:19.649Z,77211.44
2022-08-12T22:32:49.690Z,77236.50
2022-08-12T22:35:55.481Z,77221.88
2022-08-12T22:38:19.980Z,77236.50
2022-08-12T22:40:48.165Z,77240.69
2022-08-12T22:43:34.350Z,77267.88
2022-08-12T22:46:19.099Z,77267.88
2022-08-12T22:48:50.492Z,77280.41
2022-08-12T22:51:22.235Z,77301.31
2022-08-12T22:53:54.503Z,77290.84
2022-08-12T22:56:30.832Z,77286.66
2022-08-12T22:59:02.849Z,77276.22
2022-08-12T23:01:52.321Z,77284.59
2022-08-12T23:04:27.597Z,77278.31
2022-08-12T23:06:58.239Z,77284.59
2022-08-12T23:09:34.725Z,77292.94
2022-08-12T23:12:34.516Z,77311.75
2022-08-12T23:15:04.865Z,77299.22
2022-08-12T23:17:40.177Z,77286.66
2022-08-12T23:20:07.633Z,77288.75
2022-08-12T23:22:37.626Z,77292.94
2022-08-12T23:25:04.379Z,77299.22
2022-08-12T23:27:52.336Z,77307.56
2022-08-12T23:30:31.649Z,77313.84
2022-08-12T23:33:01.530Z,77309.66
2022-08-12T23:35:53.475Z,77309.66
2022-08-12T23:38:30.720Z,77324.28
2022-08-12T23:40:59.727Z,77343.09
2022-08-12T23:43:26.739Z,77353.56
2022-08-12T23:46:08.659Z,77349.38
2022-08-12T23:48:35.493Z,77349.38
2022-08-12T23:51:21.541Z,77351.47
2022-08-12T23:53:50.587Z,77353.56
2022-08-12T23:56:17.130Z,77347.28
2022-08-12T23:58:52.521Z,77359.81
